createdAt,value
2019-02-17T00:00:10.451Z,0.06
2019-02-17T00:02:39.237Z,0.05
2019-02-17T00:05:06.102Z,0.06
2019-02-17T00:07:33.032Z,0.14
2019-02-17T00:10:00.051Z,0.19
2019-02-17T00:12:27.175Z,0.21
2019-02-17T00:14:55.045Z,0.13
2019-02-17T00:17:22.159Z,0.08
2019-02-17T00:19:49.031Z,0.13
2019-02-17T00:22:15.908Z,0.06
2019-02-17T00:24:42.778Z,-0.31
2019-02-17T00:27:09.657Z,-0.37
2019-02-17T00:29:36.529Z,-0.22
2019-02-17T00:32:03.613Z,-0.27
2019-02-17T00:34:30.580Z,-0.38
2019-02-17T00:36:57.763Z,-0.20
2019-02-17T00:39:24.741Z,-0.15
2019-02-17T00:41:51.641Z,-0.05
2019-02-17T00:44:18.565Z,-0.35
2019-02-17T00:46:45.650Z,-0.53
2019-02-17T00:49:12.831Z,-0.53
2019-02-17T00:51:40.211Z,-0.62
2019-02-17T00:54:07.392Z,-0.67
2019-02-17T00:56:34.354Z,-0.54
2019-02-17T00:59:09.749Z,-0.39
2019-02-17T01:01:30.389Z,-0.24
2019-02-17T01:03:57.278Z,-0.38
2019-02-17T01:06:24.442Z,-0.36
2019-02-17T01:08:51.385Z,-0.53
2019-02-17T01:11:18.434Z,-0.84
2019-02-17T01:13:45.468Z,-0.94
2019-02-17T01:16:12.443Z,-1.05
2019-02-17T01:18:39.334Z,-1.21
2019-02-17T01:21:06.374Z,-1.09
2019-02-17T01:23:33.363Z,-0.92
2019-02-17T01:26:00.345Z,-0.91
2019-02-17T01:28:27.225Z,-0.71
2019-02-17T01:30:54.146Z,-0.54
2019-02-17T01:33:22.292Z,-0.55
2019-02-17T01:35:51.105Z,-0.90
2019-02-17T01:38:18.166Z,-1.07
2019-02-17T01:40:45.162Z,-0.77
2019-02-17T01:43:12.074Z,-0.64
2019-02-17T01:45:39.151Z,-0.63
2019-02-17T01:48:06.050Z,-0.53
2019-02-17T01:50:33.007Z,-0.54
2019-02-17T01:52:59.989Z,-0.51
2019-02-17T01:55:26.874Z,-0.52
2019-02-17T01:57:56.028Z,-0.54
2019-02-17T02:00:23.033Z,-0.72
2019-02-17T02:02:50.019Z,-0.68
2019-02-17T02:05:17.076Z,-0.50
2019-02-17T02:07:44.262Z,-0.44
2019-02-17T02:10:12.433Z,-0.39
2019-02-17T02:12:39.839Z,-0.54
2019-02-17T02:15:10.056Z,-0.53
2019-02-17T02:17:37.073Z,-0.65
2019-02-17T02:20:09.222Z,-0.60
2019-02-17T02:22:36.959Z,-0.54
2019-02-17T02:25:06.629Z,-0.69
2019-02-17T02:27:33.570Z,-0.75
2019-02-17T02:30:00.644Z,-0.64
2019-02-17T02:32:27.544Z,-0.67
2019-02-17T02:34:55.006Z,-0.73
2019-02-17T02:37:21.980Z,-0.99
2019-02-17T02:39:48.946Z,-0.77
2019-02-17T02:42:16.987Z,-0.72
2019-02-17T02:44:44.048Z,-0.74
2019-02-17T02:47:10.916Z,-0.71
2019-02-17T02:49:37.779Z,-0.82
2019-02-17T02:52:04.785Z,-0.69
2019-02-17T02:54:31.687Z,-0.80
2019-02-17T02:56:58.687Z,-0.79
2019-02-17T02:59:25.681Z,-0.81
2019-02-17T03:01:52.811Z,-0.90
2019-02-17T03:04:19.971Z,-0.74
2019-02-17T03:06:48.943Z,-0.65
2019-02-17T03:09:16.015Z,-0.77
2019-02-17T03:11:43.116Z,-0.79
2019-02-17T03:14:10.040Z,-0.79
2019-02-17T03:16:37.014Z,-0.77
2019-02-17T03:19:06.685Z,-0.75
2019-02-17T03:21:33.562Z,-0.95
2019-02-17T03:24:00.577Z,-0.79
2019-02-17T03:26:27.472Z,-0.67
2019-02-17T03:28:54.635Z,-0.78
2019-02-17T03:31:21.682Z,-0.78
2019-02-17T03:33:48.744Z,-0.78
2019-02-17T03:36:15.636Z,-0.82
2019-02-17T03:38:42.651Z,-0.81
2019-02-17T03:41:09.546Z,-0.83
2019-02-17T03:43:36.498Z,-0.77
2019-02-17T03:46:06.957Z,-0.93
2019-02-17T03:48:33.965Z,-0.77
2019-02-17T03:51:01.219Z,-0.85
2019-02-17T03:53:29.418Z,-0.78
2019-02-17T03:55:56.392Z,-0.86
2019-02-17T03:58:23.365Z,-0.85
2019-02-17T04:00:50.685Z,-0.89
2019-02-17T04:03:17.551Z,-1.05
2019-02-17T04:05:44.727Z,-1.00
2019-02-17T04:08:11.936Z,-0.90
2019-02-17T04:10:39.120Z,-0.90
2019-02-17T04:13:06.347Z,-0.91
2019-02-17T04:15:33.347Z,-0.75
2019-02-17T04:18:00.304Z,-0.71
2019-02-17T04:21:24.586Z,-0.75
2019-02-17T04:23:51.430Z,-0.84
2019-02-17T04:26:18.415Z,-0.90
2019-02-17T04:28:45.422Z,-1.00
2019-02-17T04:31:12.345Z,-1.11
2019-02-17T04:33:39.431Z,-0.95
2019-02-17T04:36:06.345Z,-0.84
2019-02-17T04:38:33.325Z,-0.96
2019-02-17T04:41:00.300Z,-0.99
2019-02-17T04:43:27.330Z,-0.88
2019-02-17T04:45:54.744Z,-0.88
2019-02-17T04:48:21.666Z,-1.01
2019-02-17T04:50:48.649Z,-0.97
2019-02-17T04:53:15.528Z,-1.07
2019-02-17T04:55:42.547Z,-1.21
2019-02-17T04:58:09.390Z,-1.15
2019-02-17T05:00:40.139Z,-1.25
2019-02-17T05:03:05.370Z,-1.18
2019-02-17T05:05:32.374Z,-1.17
2019-02-17T05:07:59.233Z,-1.16
2019-02-17T05:10:26.161Z,-1.15
2019-02-17T05:12:53.169Z,-1.14
2019-02-17T05:15:20.005Z,-1.26
2019-02-17T05:17:47.352Z,-1.17
2019-02-17T05:20:14.775Z,-1.23
2019-02-17T05:22:41.628Z,-1.16
2019-02-17T05:25:08.634Z,-1.15
2019-02-17T05:27:35.676Z,-1.09
2019-02-17T05:30:07.345Z,-1.23
2019-02-17T05:32:34.226Z,-1.13
2019-02-17T05:35:01.229Z,-1.16
2019-02-17T05:37:28.190Z,-1.17
2019-02-17T05:39:55.180Z,-1.21
2019-02-17T05:42:22.260Z,-1.17
2019-02-17T05:44:49.123Z,-1.26
2019-02-17T05:47:16.191Z,-1.30
2019-02-17T05:49:43.445Z,-1.22
2019-02-17T05:52:10.520Z,-1.18
2019-02-17T05:54:37.439Z,-1.19
2019-02-17T05:57:04.624Z,-1.23
2019-02-17T05:59:31.735Z,-1.14
2019-02-17T06:01:58.704Z,-1.33
2019-02-17T06:04:25.641Z,-1.24
2019-02-17T06:06:52.675Z,-1.01
2019-02-17T06:09:20.759Z,-1.06
2019-02-17T06:11:49.649Z,-1.06
2019-02-17T06:14:16.977Z,-1.07
2019-02-17T06:16:43.833Z,-0.98
2019-02-17T06:19:10.824Z,-1.02
2019-02-17T06:21:37.678Z,-0.95
2019-02-17T06:24:04.683Z,-0.89
2019-02-17T06:26:31.720Z,-0.86
2019-02-17T06:28:58.692Z,-0.83
2019-02-17T06:31:25.766Z,-0.73
2019-02-17T06:33:52.768Z,-0.81
2019-02-17T06:36:19.764Z,-0.71
2019-02-17T06:38:46.901Z,-1.09
2019-02-17T06:41:15.860Z,-1.03
2019-02-17T06:43:42.814Z,-0.80
2019-02-17T06:46:12.526Z,-0.61
2019-02-17T06:48:39.395Z,-0.78
2019-02-17T06:51:06.363Z,-0.67
2019-02-17T06:53:33.414Z,-0.74
2019-02-17T06:56:02.595Z,-0.63
2019-02-17T06:58:29.572Z,-0.46
2019-02-17T07:00:56.749Z,-0.35
2019-02-17T07:03:23.778Z,-0.13
2019-02-17T07:05:52.656Z,-0.01
2019-02-17T07:08:19.774Z,0.11
2019-02-17T07:10:46.909Z,0.14
2019-02-17T07:13:13.821Z,0.08
2019-02-17T07:15:40.877Z,0.09
2019-02-17T07:18:08.536Z,0.35
2019-02-17T07:20:35.512Z,0.73
2019-02-17T07:23:02.925Z,0.22
2019-02-17T07:25:30.586Z,0.16
2019-02-17T07:27:58.123Z,0.39
2019-02-17T07:30:25.297Z,0.59
2019-02-17T07:32:52.191Z,0.67
2019-02-17T07:35:19.165Z,0.86
2019-02-17T07:37:46.260Z,1.01
2019-02-17T07:40:13.238Z,1.07
2019-02-17T07:42:40.214Z,1.27
2019-02-17T07:45:11.694Z,1.41
2019-02-17T07:47:38.606Z,1.75
2019-02-17T07:50:09.020Z,1.99
2019-02-17T07:52:36.042Z,2.09
2019-02-17T07:55:07.952Z,2.37
2019-02-17T07:57:38.309Z,2.62
2019-02-17T08:00:11.043Z,2.95
2019-02-17T08:02:38.295Z,2.80
2019-02-17T08:05:07.312Z,3.04
2019-02-17T08:07:34.174Z,3.36
2019-02-17T08:10:01.991Z,3.48
2019-02-17T08:12:28.958Z,3.75
2019-02-17T08:14:56.094Z,3.97
2019-02-17T08:17:23.094Z,4.20
2019-02-17T08:19:50.098Z,4.40
2019-02-17T08:22:18.877Z,4.58
2019-02-17T08:24:47.123Z,4.71
2019-02-17T08:27:13.983Z,4.85
2019-02-17T08:29:40.944Z,4.94
2019-02-17T08:32:08.193Z,5.06
2019-02-17T08:34:35.083Z,5.15
2019-02-17T08:37:02.247Z,5.27
2019-02-17T08:39:29.243Z,5.34
2019-02-17T08:41:56.140Z,5.41
2019-02-17T08:44:23.337Z,5.47
2019-02-17T08:46:50.228Z,5.57
2019-02-17T08:49:17.114Z,5.68
2019-02-17T08:51:43.995Z,5.72
2019-02-17T08:54:10.979Z,5.82
2019-02-17T08:56:37.848Z,5.92
2019-02-17T08:59:05.176Z,5.96
2019-02-17T09:01:32.308Z,6.10
2019-02-17T09:03:59.289Z,6.17
2019-02-17T09:06:26.966Z,6.16
2019-02-17T09:08:53.859Z,6.17
2019-02-17T09:11:20.957Z,6.10
2019-02-17T09:13:48.048Z,6.31
2019-02-17T09:16:14.797Z,6.38
2019-02-17T09:18:41.542Z,6.65
2019-02-17T09:21:08.131Z,6.76
2019-02-17T09:24:31.255Z,6.85
2019-02-17T09:26:57.837Z,7.05
2019-02-17T09:29:24.445Z,7.18
2019-02-17T09:31:51.017Z,7.31
2019-02-17T09:34:17.639Z,7.46
2019-02-17T09:36:44.238Z,7.49
2019-02-17T09:39:10.947Z,7.62
2019-02-17T09:41:37.532Z,7.62
2019-02-17T09:44:04.323Z,7.75
2019-02-17T09:46:31.135Z,7.83
2019-02-17T09:48:57.870Z,8.03
2019-02-17T09:51:25.581Z,8.16
2019-02-17T09:53:52.176Z,8.05
2019-02-17T09:56:18.985Z,8.14
2019-02-17T09:58:45.635Z,8.14
2019-02-17T10:01:13.728Z,8.13
2019-02-17T10:03:40.542Z,8.16
2019-02-17T10:06:07.146Z,8.32
2019-02-17T10:08:33.755Z,8.36
2019-02-17T10:11:00.401Z,8.19
2019-02-17T10:13:27.096Z,8.12
2019-02-17T10:15:53.740Z,8.01
2019-02-17T10:18:20.348Z,8.12
2019-02-17T10:20:47.263Z,8.38
2019-02-17T10:23:13.858Z,8.46
2019-02-17T10:25:40.433Z,8.50
2019-02-17T10:28:07.074Z,8.45
2019-02-17T10:30:33.754Z,8.38
2019-02-17T10:33:00.410Z,8.56
2019-02-17T10:35:27.016Z,8.51
2019-02-17T10:37:53.581Z,8.62
2019-02-17T10:40:20.197Z,8.78
2019-02-17T10:42:46.913Z,8.76
2019-02-17T10:45:13.978Z,8.72
2019-02-17T10:47:40.597Z,8.71
2019-02-17T10:50:11.629Z,8.81
2019-02-17T10:52:38.575Z,8.85
2019-02-17T10:55:09.340Z,8.85
2019-02-17T10:57:37.157Z,8.77
2019-02-17T11:00:11.510Z,8.76
2019-02-17T11:02:46.743Z,8.85
2019-02-17T11:05:09.543Z,8.73
2019-02-17T11:07:36.439Z,8.73
2019-02-17T11:10:44.125Z,8.78
2019-02-17T11:13:10.729Z,8.72
2019-02-17T11:15:39.389Z,8.60
2019-02-17T11:18:09.201Z,8.79
2019-02-17T11:20:35.900Z,8.85
2019-02-17T11:23:02.807Z,8.69
2019-02-17T11:25:29.558Z,8.66
2019-02-17T11:27:56.170Z,8.61
2019-02-17T11:30:22.885Z,8.40
2019-02-17T11:32:57.564Z,8.52
2019-02-17T11:35:19.563Z,8.48
2019-02-17T11:37:46.270Z,8.76
2019-02-17T11:40:13.219Z,8.72
2019-02-17T11:42:40.434Z,8.61
2019-02-17T11:45:12.655Z,8.75
2019-02-17T11:47:39.298Z,8.75
2019-02-17T11:50:07.718Z,8.88
2019-02-17T11:52:35.630Z,8.89
2019-02-17T11:55:07.227Z,8.94
2019-02-17T11:57:33.791Z,8.97
2019-02-17T12:00:00.369Z,8.75
2019-02-17T12:02:27.264Z,8.83
2019-02-17T12:04:53.931Z,8.90
2019-02-17T12:07:20.818Z,9.01
2019-02-17T12:09:47.576Z,9.06
2019-02-17T12:12:17.600Z,8.92
2019-02-17T12:14:45.662Z,9.00
2019-02-17T12:17:13.343Z,9.20
2019-02-17T12:19:39.953Z,9.07
2019-02-17T12:22:08.634Z,9.19
2019-02-17T12:24:37.326Z,9.23
2019-02-17T12:27:05.963Z,9.05
2019-02-17T12:30:32.929Z,9.23
2019-02-17T12:32:59.955Z,9.30
2019-02-17T12:35:27.077Z,9.52
2019-02-17T12:37:53.877Z,9.42
2019-02-17T12:40:20.534Z,9.41
2019-02-17T12:42:47.534Z,9.20
2019-02-17T12:45:17.466Z,9.30
2019-02-17T12:47:42.934Z,9.16
2019-02-17T12:50:10.963Z,9.41
2019-02-17T12:52:47.194Z,9.47
2019-02-17T12:55:09.383Z,9.61
2019-02-17T12:57:35.986Z,9.41
2019-02-17T13:00:08.667Z,9.40
2019-02-17T13:02:35.405Z,9.49
2019-02-17T13:05:08.020Z,9.32
2019-02-17T13:07:34.715Z,9.46
2019-02-17T13:10:01.481Z,9.54
2019-02-17T13:12:28.098Z,9.46
2019-02-17T13:15:51.306Z,9.29
2019-02-17T13:18:21.191Z,9.36
2019-02-17T13:20:49.233Z,9.41
2019-02-17T13:23:15.836Z,9.45
2019-02-17T13:25:42.457Z,9.42
2019-02-17T13:28:09.121Z,9.34
2019-02-17T13:30:35.802Z,9.21
2019-02-17T13:33:02.372Z,9.46
2019-02-17T13:35:28.976Z,9.35
2019-02-17T13:37:55.667Z,9.54
2019-02-17T13:40:22.283Z,9.42
2019-02-17T13:42:49.045Z,9.33
2019-02-17T13:45:16.340Z,9.36
2019-02-17T13:47:42.990Z,9.25
2019-02-17T13:50:12.770Z,9.34
2019-02-17T13:52:39.428Z,9.44
2019-02-17T13:55:07.742Z,9.30
2019-02-17T13:57:34.499Z,9.30
2019-02-17T14:00:01.994Z,9.28
2019-02-17T14:02:30.739Z,9.18
2019-02-17T14:04:57.614Z,9.36
2019-02-17T14:07:24.726Z,9.17
2019-02-17T14:09:51.523Z,9.31
2019-02-17T14:12:18.427Z,9.46
2019-02-17T14:14:45.080Z,9.47
2019-02-17T14:17:11.722Z,9.43
2019-02-17T14:19:38.550Z,9.44
2019-02-17T14:22:05.337Z,9.53
2019-02-17T14:24:31.980Z,9.46
2019-02-17T14:26:58.588Z,9.48
2019-02-17T14:29:25.356Z,9.39
2019-02-17T14:31:52.579Z,9.13
2019-02-17T14:34:20.279Z,9.26
2019-02-17T14:36:46.975Z,9.31
2019-02-17T14:39:13.575Z,9.18
2019-02-17T14:41:40.162Z,9.13
2019-02-17T14:44:06.829Z,9.10
2019-02-17T14:46:33.564Z,9.16
2019-02-17T14:49:02.420Z,9.22
2019-02-17T14:51:28.779Z,9.38
2019-02-17T14:53:55.386Z,9.31
2019-02-17T14:56:22.166Z,9.37
2019-02-17T14:58:49.002Z,9.29
2019-02-17T15:01:15.689Z,9.18
2019-02-17T15:03:42.264Z,9.17
2019-02-17T15:06:09.040Z,8.96
2019-02-17T15:08:35.608Z,9.15
2019-02-17T15:11:02.546Z,9.14
2019-02-17T15:13:30.337Z,9.14
2019-02-17T15:15:57.001Z,9.28
2019-02-17T15:18:23.576Z,9.00
2019-02-17T15:20:50.145Z,9.05
2019-02-17T15:23:16.789Z,8.95
2019-02-17T15:25:43.373Z,9.17
2019-02-17T15:28:10.040Z,9.09
2019-02-17T15:30:36.591Z,9.04
2019-02-17T15:33:04.397Z,9.11
2019-02-17T15:35:31.453Z,9.08
2019-02-17T15:37:58.182Z,9.04
2019-02-17T15:40:24.726Z,8.84
2019-02-17T15:42:51.559Z,8.97
2019-02-17T15:45:18.274Z,8.96
2019-02-17T15:47:44.864Z,8.92
2019-02-17T15:50:13.497Z,9.06
2019-02-17T15:52:40.166Z,9.04
2019-02-17T15:55:09.974Z,9.04
2019-02-17T15:57:36.769Z,9.02
2019-02-17T16:00:09.152Z,9.04
2019-02-17T16:02:35.720Z,8.69
2019-02-17T16:05:05.343Z,8.82
2019-02-17T16:07:32.143Z,8.88
2019-02-17T16:09:58.720Z,8.85
2019-02-17T16:12:25.427Z,8.82
2019-02-17T16:14:52.077Z,8.78
2019-02-17T16:17:18.698Z,8.62
2019-02-17T16:19:47.870Z,8.42
2019-02-17T16:22:14.823Z,8.59
2019-02-17T16:24:41.581Z,8.62
2019-02-17T16:27:08.330Z,8.55
2019-02-17T16:29:35.059Z,8.52
2019-02-17T16:32:01.879Z,8.61
2019-02-17T16:34:38.003Z,8.63
2019-02-17T16:37:00.013Z,8.62
2019-02-17T16:39:26.725Z,8.64
2019-02-17T16:41:53.398Z,8.65
2019-02-17T16:44:20.134Z,8.61
2019-02-17T16:46:46.852Z,8.64
2019-02-17T16:49:13.424Z,8.55
2019-02-17T16:51:40.041Z,8.52
2019-02-17T16:54:06.617Z,8.55
2019-02-17T16:56:33.192Z,8.72
2019-02-17T16:58:59.799Z,8.68
2019-02-17T17:01:26.731Z,8.61
2019-02-17T17:03:53.316Z,8.61
2019-02-17T17:06:20.024Z,8.69
2019-02-17T17:08:46.856Z,8.51
2019-02-17T17:11:13.446Z,8.71
2019-02-17T17:13:40.117Z,8.67
2019-02-17T17:16:06.839Z,8.54
2019-02-17T17:18:33.441Z,8.62
2019-02-17T17:21:01.075Z,8.68
2019-02-17T17:23:28.874Z,8.53
2019-02-17T17:25:56.690Z,8.56
2019-02-17T17:28:25.773Z,8.62
2019-02-17T17:30:53.140Z,8.47
2019-02-17T17:33:19.765Z,8.45
2019-02-17T17:35:46.347Z,8.50
2019-02-17T17:38:13.102Z,8.63
2019-02-17T17:40:41.884Z,8.61
2019-02-17T17:43:08.689Z,8.67
2019-02-17T17:45:35.523Z,8.70
2019-02-17T17:48:02.352Z,8.69
2019-02-17T17:50:29.054Z,8.49
2019-02-17T17:52:55.846Z,8.52
2019-02-17T17:55:22.538Z,8.44
2019-02-17T17:57:49.525Z,8.59
2019-02-17T18:00:19.750Z,8.52
2019-02-17T18:02:46.938Z,8.59
2019-02-17T18:05:13.998Z,8.27
2019-02-17T18:07:41.147Z,8.26
2019-02-17T18:10:11.884Z,8.17
2019-02-17T18:12:38.514Z,8.21
2019-02-17T18:15:09.748Z,8.26
2019-02-17T18:17:37.011Z,8.27
2019-02-17T18:20:10.188Z,8.31
2019-02-17T18:22:37.282Z,8.36
2019-02-17T18:25:06.131Z,8.27
2019-02-17T18:27:36.306Z,8.10
2019-02-17T18:30:10.295Z,8.15
2019-02-17T18:32:37.191Z,8.05
2019-02-17T18:35:05.573Z,8.09
2019-02-17T18:37:32.907Z,8.06
2019-02-17T18:39:59.576Z,8.07
2019-02-17T18:42:27.324Z,8.09
2019-02-17T18:44:54.330Z,8.14
2019-02-17T18:47:30.328Z,8.13
2019-02-17T18:49:58.132Z,8.01
2019-02-17T18:52:24.789Z,8.01
2019-02-17T18:54:52.908Z,8.04
2019-02-17T18:57:19.701Z,8.12
2019-02-17T18:59:47.617Z,8.16
2019-02-17T19:02:14.657Z,8.19
2019-02-17T19:04:42.108Z,8.07
2019-02-17T19:07:09.094Z,8.16
2019-02-17T19:09:39.162Z,7.76
2019-02-17T19:12:07.374Z,7.73
2019-02-17T19:14:34.418Z,7.76
2019-02-17T19:17:01.059Z,7.95
2019-02-17T19:19:27.661Z,7.92
2019-02-17T19:21:55.094Z,7.79
2019-02-17T19:24:23.981Z,7.83
2019-02-17T19:26:50.561Z,7.81
2019-02-17T19:29:17.291Z,7.69
2019-02-17T19:31:46.524Z,7.52
2019-02-17T19:34:13.184Z,7.64
2019-02-17T19:36:40.119Z,7.64
2019-02-17T19:39:06.935Z,7.68
2019-02-17T19:41:34.767Z,7.57
2019-02-17T19:44:01.385Z,7.51
2019-02-17T19:46:28.189Z,7.57
2019-02-17T19:48:55.322Z,7.58
2019-02-17T19:51:22.426Z,7.51
2019-02-17T19:53:49.365Z,7.50
2019-02-17T19:56:16.723Z,7.46
2019-02-17T19:58:43.842Z,7.43
2019-02-17T20:02:07.073Z,7.46
2019-02-17T20:04:35.626Z,7.48
2019-02-17T20:07:02.602Z,7.45
2019-02-17T20:09:29.512Z,7.49
2019-02-17T20:11:56.266Z,7.42
2019-02-17T20:14:23.430Z,7.46
2019-02-17T20:16:50.427Z,7.42
2019-02-17T20:19:17.092Z,7.42
2019-02-17T20:21:44.107Z,7.34
2019-02-17T20:24:11.169Z,7.40
2019-02-17T20:26:38.289Z,7.39
2019-02-17T20:29:05.119Z,7.21
2019-02-17T20:31:32.076Z,7.13
2019-02-17T20:33:58.868Z,7.12
2019-02-17T20:36:27.033Z,7.24
2019-02-17T20:38:54.058Z,7.22
2019-02-17T20:41:20.881Z,7.15
2019-02-17T20:43:48.025Z,7.17
2019-02-17T20:46:16.403Z,7.13
2019-02-17T20:48:42.992Z,7.12
2019-02-17T20:51:09.631Z,6.96
2019-02-17T20:54:34.417Z,6.99
2019-02-17T20:57:01.037Z,7.02
2019-02-17T20:59:28.017Z,6.88
2019-02-17T21:01:54.703Z,6.75
2019-02-17T21:04:21.650Z,6.73
2019-02-17T21:06:48.430Z,6.72
2019-02-17T21:09:15.319Z,6.63
2019-02-17T21:11:42.243Z,6.65
2019-02-17T21:14:09.153Z,6.79
2019-02-17T21:16:35.877Z,6.78
2019-02-17T21:19:02.868Z,6.81
2019-02-17T21:22:25.920Z,6.89
2019-02-17T21:24:52.784Z,6.70
2019-02-17T21:27:19.559Z,6.78
2019-02-17T21:29:46.269Z,6.76
2019-02-17T21:32:13.828Z,6.76
2019-02-17T21:34:40.809Z,6.81
2019-02-17T21:37:08.486Z,6.72
2019-02-17T21:39:35.057Z,6.71
2019-02-17T21:42:02.887Z,6.59
2019-02-17T21:44:29.533Z,6.73
2019-02-17T21:46:56.581Z,6.77
2019-02-17T21:49:23.154Z,6.73
2019-02-17T21:51:51.780Z,6.63
2019-02-17T21:54:19.748Z,6.62
2019-02-17T21:56:46.697Z,6.52
2019-02-17T21:59:14.103Z,6.59
2019-02-17T22:01:41.038Z,6.43
2019-02-17T22:04:07.599Z,6.52
2019-02-17T22:06:34.339Z,6.47
2019-02-17T22:09:01.530Z,6.39
2019-02-17T22:11:30.689Z,6.45
2019-02-17T22:13:57.363Z,6.48
2019-02-17T22:16:25.462Z,6.44
2019-02-17T22:18:53.795Z,6.41
2019-02-17T22:21:20.617Z,6.33
2019-02-17T22:23:47.388Z,6.30
2019-02-17T22:26:14.530Z,6.33
2019-02-17T22:28:45.030Z,6.35
2019-02-17T22:31:11.848Z,6.23
2019-02-17T22:33:38.699Z,6.28
2019-02-17T22:36:05.599Z,6.29
2019-02-17T22:38:32.308Z,6.17
2019-02-17T22:40:58.996Z,6.11
2019-02-17T22:43:27.923Z,6.16
2019-02-17T22:45:54.237Z,5.97
2019-02-17T22:48:21.022Z,5.86
2019-02-17T22:50:48.328Z,6.01
2019-02-17T22:53:15.177Z,5.96
2019-02-17T22:55:44.903Z,5.72
2019-02-17T22:58:12.054Z,5.78
2019-02-17T23:00:40.922Z,5.69
2019-02-17T23:03:08.250Z,5.82
2019-02-17T23:05:35.957Z,5.97
2019-02-17T23:08:02.922Z,6.00
2019-02-17T23:10:29.860Z,6.07
2019-02-17T23:12:57.790Z,6.07
2019-02-17T23:15:24.566Z,6.04
2019-02-17T23:17:51.349Z,6.04
2019-02-17T23:20:17.951Z,6.00
2019-02-17T23:22:44.601Z,6.00
2019-02-17T23:25:11.318Z,5.99
2019-02-17T23:27:38.070Z,5.97
2019-02-17T23:30:08.624Z,6.03
2019-02-17T23:32:35.404Z,6.00
2019-02-17T23:35:02.862Z,6.06
2019-02-17T23:37:29.519Z,5.99
2019-02-17T23:39:56.083Z,6.08
2019-02-17T23:42:22.982Z,6.07
2019-02-17T23:44:49.707Z,5.99
2019-02-17T23:47:16.277Z,5.86
2019-02-17T23:49:42.955Z,5.75
2019-02-17T23:53:05.889Z,5.85
2019-02-17T23:55:32.738Z,5.89
2019-02-17T23:58:01.226Z,5.99
